Terminal Aerodrome Forecast
Issued by NWS

Home | Current Version | Previous Version | Text Only | Print | Product List | Glossary On
Versions: 1 2 3 4 5 6 7 8 9 10 11 12 13 14 15 16 17
000
FTUS43 KOAX 241100
TAFBFF
TAF
KBFF 241120Z 2412/2512 10010KT P6SM SCT100
     FM241500 25012G23KT P6SM SCT080
     FM242000 29013G24KT P6SM VCTS BKN080CB
     FM250200 32008KT P6SM SCT080=

USA.gov is the U.S. government's official web portal to all federal, state and local government web resources and services.